createdAt,value
2023-05-08T00:02:17.662Z,0.63
2023-05-08T00:04:45.949Z,0.20
2023-05-08T00:07:14.240Z,0.20
2023-05-08T00:09:42.391Z,0.30
2023-05-08T00:12:10.498Z,0.38
2023-05-08T00:14:40.149Z,0.25
2023-05-08T00:17:08.473Z,0.38
2023-05-08T00:19:36.720Z,0.90
2023-05-08T00:22:04.892Z,0.40
2023-05-08T00:24:33.217Z,0.47
2023-05-08T00:27:01.335Z,1.35
2023-05-08T00:29:29.550Z,0.65
2023-05-08T00:31:59.128Z,0.40
2023-05-08T00:34:27.442Z,0.43
2023-05-08T00:36:57.678Z,0.30
2023-05-08T00:39:25.969Z,0.68
2023-05-08T00:41:54.315Z,0.40
2023-05-08T00:44:22.477Z,0.47
2023-05-08T00:46:51.192Z,0.70
2023-05-08T00:49:21.026Z,0.60
2023-05-08T00:51:52.658Z,0.60
2023-05-08T00:54:21.724Z,0.60
2023-05-08T00:56:52.233Z,0.60
2023-05-08T00:59:22.790Z,0.60
2023-05-08T01:01:53.498Z,0.95
2023-05-08T01:04:26.786Z,0.50
2023-05-08T01:06:54.960Z,0.82
2023-05-08T01:09:23.148Z,1.35
2023-05-08T01:12:00.531Z,1.58
2023-05-08T01:14:37.718Z,1.35
2023-05-08T01:17:11.893Z,0.75
2023-05-08T01:20:12.046Z,0.70
2023-05-08T01:23:09.004Z,0.70
2023-05-08T01:26:03.646Z,1.05
2023-05-08T01:29:02.183Z,2.45
2023-05-08T01:31:44.421Z,0.70
2023-05-08T01:34:21.308Z,0.55
2023-05-08T01:36:54.234Z,0.60
2023-05-08T01:39:30.929Z,0.50
2023-05-08T01:42:06.223Z,0.68
2023-05-08T01:44:39.613Z,0.52
2023-05-08T01:47:10.907Z,1.65
2023-05-08T01:49:43.687Z,0.90
2023-05-08T01:52:19.760Z,0.73
2023-05-08T01:54:57.194Z,1.30
2023-05-08T01:57:30.150Z,1.02
2023-05-08T02:00:01.763Z,0.60
2023-05-08T02:05:02.323Z,0.40
2023-05-08T02:07:30.506Z,0.40
2023-05-08T02:09:59.708Z,1.20
2023-05-08T02:12:29.494Z,1.13
2023-05-08T02:14:58.549Z,0.93
2023-05-08T02:17:27.545Z,0.85
2023-05-08T02:19:57.860Z,1.60
2023-05-08T02:22:28.993Z,1.05
2023-05-08T02:24:59.301Z,1.30
2023-05-08T02:27:30.500Z,0.50
2023-05-08T02:30:00.696Z,1.00
2023-05-08T02:32:31.101Z,0.85
2023-05-08T02:35:03.424Z,1.00
2023-05-08T02:37:35.553Z,1.02
2023-05-08T02:40:08.126Z,1.00
2023-05-08T02:42:36.431Z,0.98
2023-05-08T02:45:05.082Z,0.80
2023-05-08T02:47:43.580Z,0.82
2023-05-08T02:50:19.562Z,1.20
2023-05-08T02:52:52.628Z,1.30
2023-05-08T02:55:34.474Z,0.88
2023-05-08T02:58:11.325Z,1.00
2023-05-08T03:00:45.752Z,0.93
2023-05-08T03:03:21.090Z,0.93
2023-05-08T03:05:54.042Z,0.60
2023-05-08T03:08:30.050Z,1.50
2023-05-08T03:11:01.179Z,0.85
2023-05-08T03:13:33.529Z,0.93
2023-05-08T03:16:03.492Z,1.08
2023-05-08T03:18:36.504Z,2.05
2023-05-08T03:21:07.485Z,2.03
2023-05-08T03:23:40.189Z,1.15
2023-05-08T03:26:10.019Z,1.65
2023-05-08T03:28:40.492Z,1.63
2023-05-08T03:31:09.981Z,1.35
2023-05-08T03:33:40.088Z,1.75
2023-05-08T03:36:08.542Z,2.38
2023-05-08T03:38:38.224Z,1.20
2023-05-08T03:41:08.073Z,0.85
2023-05-08T03:43:38.554Z,1.10
2023-05-08T03:46:07.293Z,0.80
2023-05-08T03:48:36.181Z,0.60
2023-05-08T03:51:05.630Z,0.60
2023-05-08T03:53:34.978Z,0.60
2023-05-08T03:56:05.183Z,0.80
2023-05-08T03:58:37.904Z,0.40
2023-05-08T04:01:13.384Z,0.43
2023-05-08T04:03:55.214Z,1.00
2023-05-08T04:06:35.667Z,0.90
2023-05-08T04:09:18.579Z,1.30
2023-05-08T04:12:03.614Z,1.15
2023-05-08T04:14:36.768Z,0.60
2023-05-08T04:17:11.092Z,0.50
2023-05-08T04:19:44.603Z,0.90
2023-05-08T04:22:14.473Z,0.85
2023-05-08T04:24:45.828Z,0.55
2023-05-08T04:27:16.651Z,0.70
2023-05-08T04:29:45.194Z,0.47
2023-05-08T04:32:13.982Z,0.40
2023-05-08T04:34:42.791Z,0.50
2023-05-08T04:37:10.897Z,0.40
2023-05-08T04:39:39.123Z,0.40
2023-05-08T04:42:07.293Z,0.52
2023-05-08T04:44:36.777Z,0.50
2023-05-08T04:47:05.132Z,0.35
2023-05-08T04:49:33.859Z,0.40
2023-05-08T04:52:01.999Z,0.50
2023-05-08T04:54:30.273Z,0.30
2023-05-08T04:56:58.847Z,0.55
2023-05-08T04:59:27.080Z,1.27
2023-05-08T05:01:58.463Z,1.23
2023-05-08T05:04:26.669Z,1.98
2023-05-08T05:06:54.876Z,1.20
2023-05-08T05:09:23.121Z,2.53
2023-05-08T05:11:51.304Z,1.67
2023-05-08T05:14:19.672Z,2.28
2023-05-08T05:16:47.941Z,1.23
2023-05-08T05:19:17.544Z,1.20
2023-05-08T05:21:45.703Z,1.63
2023-05-08T05:24:13.980Z,1.85
2023-05-08T05:26:42.461Z,1.02
2023-05-08T05:29:10.644Z,0.88
2023-05-08T05:31:39.115Z,0.40
2023-05-08T05:34:07.297Z,0.50
2023-05-08T05:36:36.978Z,0.57
2023-05-08T05:39:05.384Z,0.50
2023-05-08T05:41:34.303Z,0.30
2023-05-08T05:44:02.489Z,0.30
2023-05-08T05:46:32.711Z,0.65
2023-05-08T05:49:01.083Z,0.50
2023-05-08T05:51:29.420Z,0.30
2023-05-08T05:53:59.074Z,0.50
2023-05-08T05:56:27.926Z,0.20
2023-05-08T05:58:56.124Z,0.40
2023-05-08T06:01:24.947Z,0.47
2023-05-08T06:03:53.286Z,0.30
2023-05-08T06:06:21.463Z,0.25
2023-05-08T06:08:49.801Z,0.30
2023-05-08T06:11:19.508Z,0.38
2023-05-08T06:13:50.430Z,0.32
2023-05-08T06:16:20.943Z,0.43
2023-05-08T06:18:49.195Z,0.47
2023-05-08T06:21:17.536Z,0.60
2023-05-08T06:23:45.731Z,0.20
2023-05-08T06:26:13.917Z,0.40
2023-05-08T06:28:43.570Z,0.55
2023-05-08T06:31:11.989Z,0.30
2023-05-08T06:33:40.566Z,0.30
2023-05-08T06:36:09.437Z,0.20
2023-05-08T06:38:37.796Z,0.20
2023-05-08T06:41:05.981Z,0.20
2023-05-08T06:43:34.106Z,0.30
2023-05-08T06:46:04.058Z,0.20
2023-05-08T06:48:32.323Z,0.22
2023-05-08T06:51:00.621Z,0.20
2023-05-08T06:53:28.868Z,0.40
2023-05-08T06:55:57.964Z,0.20
2023-05-08T06:58:26.359Z,0.38
2023-05-08T07:00:54.547Z,0.15
2023-05-08T07:03:24.174Z,0.20
2023-05-08T07:05:52.271Z,0.40
2023-05-08T07:08:20.460Z,0.55
2023-05-08T07:10:48.682Z,0.30
2023-05-08T07:13:21.907Z,0.40
2023-05-08T07:15:50.229Z,0.15
2023-05-08T07:18:18.433Z,0.10
2023-05-08T07:20:48.190Z,0.30
2023-05-08T07:23:16.839Z,0.20
2023-05-08T07:25:45.162Z,0.30
2023-05-08T07:28:13.418Z,0.30
2023-05-08T07:30:41.653Z,0.30
2023-05-08T07:33:09.968Z,0.32
2023-05-08T07:35:41.037Z,0.20
2023-05-08T07:38:10.967Z,0.20
2023-05-08T07:40:39.500Z,0.47
2023-05-08T07:43:07.736Z,0.40
2023-05-08T07:45:37.257Z,0.30
2023-05-08T07:48:05.924Z,0.35
2023-05-08T07:50:34.615Z,0.38
2023-05-08T07:53:02.696Z,0.30
2023-05-08T07:55:32.322Z,0.52
2023-05-08T07:58:00.870Z,0.30
2023-05-08T08:00:29.912Z,0.22
2023-05-08T08:02:58.172Z,0.20
2023-05-08T08:05:26.684Z,0.40
2023-05-08T08:07:55.660Z,0.20
2023-05-08T08:10:23.934Z,0.10
2023-05-08T08:12:53.606Z,0.30
2023-05-08T08:15:22.021Z,1.25
2023-05-08T08:17:50.238Z,0.30
2023-05-08T08:20:18.571Z,0.47
2023-05-08T08:22:46.777Z,0.45
2023-05-08T08:25:15.252Z,0.30
2023-05-08T08:27:43.585Z,0.30
2023-05-08T08:30:18.062Z,0.40
2023-05-08T08:32:47.466Z,0.85
2023-05-08T08:35:17.140Z,0.40
2023-05-08T08:37:45.681Z,0.40
2023-05-08T08:40:14.198Z,0.30
2023-05-08T08:42:42.393Z,0.50
2023-05-08T08:45:12.086Z,0.40
2023-05-08T08:47:45.831Z,0.43
2023-05-08T08:50:16.031Z,0.50
2023-05-08T08:52:49.506Z,0.50
2023-05-08T08:55:19.872Z,0.38
2023-05-08T08:57:56.752Z,0.40
2023-05-08T09:00:28.978Z,0.40
2023-05-08T09:02:59.047Z,0.50
2023-05-08T09:05:28.126Z,0.50
2023-05-08T09:07:56.844Z,0.40
2023-05-08T09:10:26.402Z,0.60
2023-05-08T09:12:54.796Z,0.40
2023-05-08T09:15:23.199Z,0.50
2023-05-08T09:17:51.536Z,0.52
2023-05-08T09:20:21.407Z,0.30
2023-05-08T09:22:50.726Z,0.47
2023-05-08T09:25:19.241Z,0.60
2023-05-08T09:27:47.499Z,0.35
2023-05-08T09:30:15.900Z,0.45
2023-05-08T09:32:45.726Z,0.60
2023-05-08T09:35:14.417Z,0.50
2023-05-08T09:37:45.111Z,0.50
2023-05-08T09:40:20.972Z,0.47
2023-05-08T09:42:51.108Z,0.40
2023-05-08T09:45:30.398Z,0.60
2023-05-08T09:47:58.921Z,0.77
2023-05-08T09:50:27.952Z,0.57
2023-05-08T09:52:57.792Z,0.90
2023-05-08T09:55:26.126Z,0.70
2023-05-08T09:57:56.614Z,0.50
2023-05-08T10:00:25.483Z,0.70
2023-05-08T10:02:59.763Z,0.82
2023-05-08T10:05:30.281Z,0.55
2023-05-08T10:08:01.234Z,0.80
2023-05-08T10:10:31.295Z,0.65
2023-05-08T10:13:00.248Z,0.80
2023-05-08T10:15:31.908Z,0.70
2023-05-08T10:18:05.050Z,0.70
2023-05-08T10:20:35.323Z,0.80
2023-05-08T10:23:07.555Z,0.90
2023-05-08T10:25:37.568Z,0.70
2023-05-08T10:28:14.570Z,0.70
2023-05-08T10:30:49.001Z,0.90
2023-05-08T10:33:21.999Z,0.80
2023-05-08T10:35:50.663Z,1.20
2023-05-08T10:38:21.411Z,0.85
2023-05-08T10:40:50.694Z,0.73
2023-05-08T10:43:19.770Z,0.70
2023-05-08T10:45:48.639Z,0.80
2023-05-08T10:48:25.166Z,0.70
2023-05-08T10:51:02.365Z,0.90
2023-05-08T10:53:41.442Z,0.95
2023-05-08T10:56:10.217Z,1.02
2023-05-08T10:58:40.441Z,0.95
2023-05-08T11:01:16.697Z,1.70
2023-05-08T11:03:47.107Z,1.13
2023-05-08T11:06:16.113Z,0.90
2023-05-08T11:08:54.852Z,1.00
2023-05-08T11:11:29.810Z,1.00
2023-05-08T11:14:10.938Z,0.90
2023-05-08T11:17:08.476Z,1.00
2023-05-08T11:19:38.145Z,1.20
2023-05-08T11:22:17.955Z,1.00
2023-05-08T11:24:54.210Z,1.08
2023-05-08T11:27:33.909Z,0.88
2023-05-08T11:30:27.177Z,0.80
2023-05-08T11:33:30.650Z,1.25
2023-05-08T11:36:00.578Z,1.10
2023-05-08T11:38:35.982Z,1.70
2023-05-08T11:41:10.615Z,1.13
2023-05-08T11:44:15.927Z,0.90
2023-05-08T11:46:49.897Z,0.98
2023-05-08T11:49:24.531Z,1.25
2023-05-08T11:51:58.059Z,1.23
2023-05-08T11:54:30.044Z,1.20
2023-05-08T11:56:59.803Z,1.30
2023-05-08T11:59:28.140Z,0.85
2023-05-08T12:02:07.552Z,1.13
2023-05-08T12:04:45.730Z,0.88
2023-05-08T12:07:14.267Z,1.15
2023-05-08T12:09:42.550Z,0.98
2023-05-08T12:12:12.224Z,0.90
2023-05-08T12:14:40.437Z,1.27
2023-05-08T12:17:08.668Z,1.13
2023-05-08T12:19:37.094Z,1.17
2023-05-08T12:22:05.470Z,1.20
2023-05-08T12:24:33.808Z,1.25
2023-05-08T12:27:02.225Z,1.00
2023-05-08T12:29:31.700Z,0.95
2023-05-08T12:32:00.048Z,1.08
2023-05-08T12:34:28.975Z,1.20
2023-05-08T12:37:04.443Z,1.10
2023-05-08T12:39:37.854Z,1.27
2023-05-08T12:42:06.316Z,1.02
2023-05-08T12:44:35.982Z,0.90
2023-05-08T12:47:06.981Z,0.82
2023-05-08T12:49:35.161Z,1.42
2023-05-08T12:52:04.845Z,1.15
2023-05-08T12:54:34.611Z,0.85
2023-05-08T12:57:03.000Z,1.02
2023-05-08T12:59:33.544Z,1.08
2023-05-08T13:02:03.368Z,0.90
2023-05-08T13:04:31.846Z,1.08
2023-05-08T13:07:00.315Z,0.90
2023-05-08T13:09:28.563Z,1.15
2023-05-08T13:11:56.773Z,1.20
2023-05-08T13:14:24.965Z,0.88
2023-05-08T13:16:53.386Z,1.10
2023-05-08T13:19:23.546Z,1.20
2023-05-08T13:21:52.988Z,1.00
2023-05-08T13:24:21.102Z,0.73
2023-05-08T13:26:49.166Z,1.33
2023-05-08T13:29:17.420Z,1.52
2023-05-08T13:31:45.885Z,1.30
2023-05-08T13:34:15.152Z,0.80
2023-05-08T13:36:44.887Z,0.80
2023-05-08T13:39:13.109Z,0.75
2023-05-08T13:41:41.154Z,0.90
2023-05-08T13:44:09.413Z,1.17
2023-05-08T13:46:37.669Z,1.25
2023-05-08T13:49:05.834Z,0.90
2023-05-08T13:51:34.061Z,1.15
2023-05-08T13:54:03.522Z,1.17
2023-05-08T13:56:31.664Z,0.90
2023-05-08T13:58:59.773Z,1.10
2023-05-08T14:01:28.025Z,0.90
2023-05-08T14:03:56.692Z,0.80
2023-05-08T14:06:25.025Z,0.90
2023-05-08T14:08:55.414Z,0.77
2023-05-08T14:11:27.061Z,1.00
2023-05-08T14:13:55.242Z,1.30
2023-05-08T14:16:23.584Z,1.13
2023-05-08T14:18:51.796Z,0.75
2023-05-08T14:21:20.025Z,0.95
2023-05-08T14:23:48.121Z,1.23
2023-05-08T14:26:16.485Z,1.10
2023-05-08T14:28:46.139Z,1.00
2023-05-08T14:31:14.341Z,1.08
2023-05-08T14:33:42.571Z,1.00
2023-05-08T14:36:11.324Z,1.10
2023-05-08T14:38:39.473Z,1.33
2023-05-08T14:41:07.645Z,1.20
2023-05-08T14:43:35.743Z,1.27
2023-05-08T14:46:05.457Z,1.13
2023-05-08T14:48:33.766Z,2.00
2023-05-08T14:51:01.919Z,1.17
2023-05-08T14:53:30.276Z,1.83
2023-05-08T14:56:00.253Z,1.27
2023-05-08T14:58:28.731Z,1.80
2023-05-08T15:00:56.920Z,0.80
2023-05-08T15:03:27.123Z,0.77
2023-05-08T15:05:55.578Z,0.90
2023-05-08T15:08:23.828Z,0.93
2023-05-08T15:10:52.341Z,1.30
2023-05-08T15:13:20.632Z,1.15
2023-05-08T15:15:48.865Z,1.27
2023-05-08T15:18:17.136Z,0.90
2023-05-08T15:20:46.673Z,1.30
2023-05-08T15:23:14.813Z,1.20
2023-05-08T15:25:43.010Z,1.08
2023-05-08T15:28:11.264Z,2.40
2023-05-08T15:30:39.354Z,1.20
2023-05-08T15:33:07.684Z,1.10
2023-05-08T15:35:35.947Z,1.60
2023-05-08T15:38:07.287Z,1.20
2023-05-08T15:43:04.147Z,1.38
2023-05-08T15:45:33.922Z,1.30
2023-05-08T15:48:02.315Z,1.30
2023-05-08T15:50:30.838Z,1.35
2023-05-08T15:52:59.068Z,1.63
2023-05-08T15:55:28.711Z,1.02
2023-05-08T15:57:56.867Z,1.75
2023-05-08T16:00:30.131Z,1.17
2023-05-08T16:03:05.408Z,1.25
2023-05-08T16:05:33.626Z,1.00
2023-05-08T16:08:01.818Z,1.05
2023-05-08T16:10:31.544Z,1.38
2023-05-08T16:12:59.831Z,0.93
2023-05-08T16:15:28.095Z,1.27
2023-05-08T16:17:56.304Z,1.60
2023-05-08T16:20:24.600Z,1.15
2023-05-08T16:22:55.534Z,1.30
2023-05-08T16:25:24.251Z,0.75
2023-05-08T16:27:53.881Z,1.20
2023-05-08T16:30:22.122Z,1.10
2023-05-08T16:32:50.549Z,1.20
2023-05-08T16:35:19.799Z,1.20
2023-05-08T16:37:48.586Z,1.52
2023-05-08T16:40:16.900Z,1.15
2023-05-08T16:42:45.038Z,1.02
2023-05-08T16:45:14.944Z,1.27
2023-05-08T16:47:43.418Z,1.13
2023-05-08T16:50:12.441Z,1.20
2023-05-08T16:52:40.657Z,1.42
2023-05-08T16:55:11.221Z,1.85
2023-05-08T16:57:39.599Z,1.65
2023-05-08T17:00:09.510Z,2.10
2023-05-08T17:02:39.161Z,1.40
2023-05-08T17:05:08.172Z,1.05
2023-05-08T17:07:36.403Z,1.38
2023-05-08T17:10:04.837Z,1.30
2023-05-08T17:12:33.184Z,1.45
2023-05-08T17:15:01.342Z,1.23
2023-05-08T17:17:29.567Z,1.23
2023-05-08T17:19:59.160Z,1.30
2023-05-08T17:22:27.457Z,1.30
2023-05-08T17:24:55.599Z,1.20
2023-05-08T17:27:23.824Z,1.30
2023-05-08T17:29:51.985Z,1.88
2023-05-08T17:32:20.244Z,2.53
2023-05-08T17:34:48.396Z,1.58
2023-05-08T17:37:18.043Z,1.70
2023-05-08T17:39:46.245Z,1.80
2023-05-08T17:42:14.443Z,1.52
2023-05-08T17:44:42.702Z,1.08
2023-05-08T17:47:11.181Z,1.08
2023-05-08T17:49:39.288Z,1.60
2023-05-08T17:52:07.570Z,1.15
2023-05-08T17:54:37.216Z,1.23
2023-05-08T17:57:05.465Z,1.50
2023-05-08T17:59:33.718Z,1.30
2023-05-08T18:02:01.996Z,0.98
2023-05-08T18:04:30.291Z,1.35
2023-05-08T18:07:01.389Z,1.02
2023-05-08T18:09:29.543Z,1.00
2023-05-08T18:12:02.566Z,1.42
2023-05-08T18:14:32.357Z,2.70
2023-05-08T18:17:03.088Z,3.42
2023-05-08T18:19:31.345Z,3.60
2023-05-08T18:21:59.513Z,2.92
2023-05-08T18:24:27.773Z,2.33
2023-05-08T18:26:55.898Z,1.70
2023-05-08T18:29:26.037Z,2.33
2023-05-08T18:31:54.310Z,1.70
2023-05-08T18:34:22.536Z,2.10
2023-05-08T18:36:50.977Z,1.70
2023-05-08T18:39:19.317Z,1.45
2023-05-08T18:41:47.631Z,1.80
2023-05-08T18:44:15.859Z,2.25
2023-05-08T18:46:45.438Z,2.90
2023-05-08T18:49:13.687Z,2.00
2023-05-08T18:51:42.114Z,2.45
2023-05-08T18:54:10.415Z,3.22
2023-05-08T18:56:38.747Z,2.85
2023-05-08T18:59:07.144Z,1.48
2023-05-08T19:01:35.547Z,1.20
2023-05-08T19:04:05.666Z,1.15
2023-05-08T19:06:33.954Z,0.90
2023-05-08T19:09:02.134Z,1.48
2023-05-08T19:11:30.343Z,1.00
2023-05-08T19:13:58.521Z,1.30
2023-05-08T19:16:26.986Z,1.15
2023-05-08T19:18:55.242Z,1.15
2023-05-08T19:21:24.874Z,1.40
2023-05-08T19:23:53.183Z,1.33
2023-05-08T19:26:21.459Z,1.20
2023-05-08T19:28:49.697Z,1.30
2023-05-08T19:31:17.831Z,1.42
2023-05-08T19:33:47.414Z,1.67
2023-05-08T19:36:15.724Z,1.83
2023-05-08T19:38:45.358Z,1.83
2023-05-08T19:41:13.468Z,1.70
2023-05-08T19:43:41.658Z,2.03
2023-05-08T19:46:10.060Z,2.33
2023-05-08T19:48:38.295Z,1.83
2023-05-08T19:51:10.236Z,1.95
2023-05-08T19:53:39.846Z,2.38
2023-05-08T19:56:10.058Z,1.77
2023-05-08T19:58:38.205Z,1.92
2023-05-08T20:01:06.620Z,1.90
2023-05-08T20:03:34.863Z,2.65
2023-05-08T20:06:03.106Z,2.17
2023-05-08T20:08:31.330Z,2.60
2023-05-08T20:11:02.521Z,2.30
2023-05-08T20:13:32.019Z,2.10
2023-05-08T20:16:00.169Z,2.08
2023-05-08T20:18:28.419Z,2.30
2023-05-08T20:20:56.640Z,2.53
2023-05-08T20:23:24.838Z,1.80
2023-05-08T20:25:54.336Z,1.95
2023-05-08T20:28:26.237Z,2.00
2023-05-08T20:30:55.932Z,2.10
2023-05-08T20:33:24.177Z,2.53
2023-05-08T20:35:53.400Z,2.70
2023-05-08T20:38:22.030Z,2.30
2023-05-08T20:40:50.252Z,2.47
2023-05-08T20:43:19.568Z,2.80
2023-05-08T20:45:49.297Z,3.05
2023-05-08T20:48:19.054Z,3.30
2023-05-08T20:50:49.308Z,3.30
2023-05-08T20:53:17.618Z,2.55
2023-05-08T20:55:45.749Z,2.78
2023-05-08T20:58:13.895Z,3.30
2023-05-08T21:00:42.011Z,2.15
2023-05-08T21:03:10.264Z,3.47
2023-05-08T21:05:39.923Z,2.78
2023-05-08T21:08:08.803Z,2.72
2023-05-08T21:10:36.884Z,3.00
2023-05-08T21:13:05.559Z,3.28
2023-05-08T21:15:35.104Z,2.92
2023-05-08T21:18:03.442Z,2.95
2023-05-08T21:20:34.290Z,3.03
2023-05-08T21:23:03.859Z,2.88
2023-05-08T21:25:32.125Z,3.53
2023-05-08T21:28:00.390Z,3.20
2023-05-08T21:30:28.648Z,3.25
2023-05-08T21:32:58.234Z,3.47
2023-05-08T21:35:26.498Z,3.03
2023-05-08T21:37:54.884Z,4.47
2023-05-08T21:40:24.680Z,2.88
2023-05-08T21:42:52.941Z,3.33
2023-05-08T21:45:21.215Z,3.58
2023-05-08T21:47:49.309Z,3.30
2023-05-08T21:50:17.663Z,3.65
2023-05-08T21:52:45.852Z,3.42
2023-05-08T21:55:14.335Z,3.70
2023-05-08T21:57:44.215Z,4.05
2023-05-08T22:00:13.849Z,3.22
2023-05-08T22:02:42.046Z,2.92
2023-05-08T22:05:10.619Z,3.85
2023-05-08T22:07:38.750Z,3.55
2023-05-08T22:10:09.212Z,3.47
2023-05-08T22:12:37.573Z,3.80
2023-05-08T22:15:25.618Z,3.83
2023-05-08T22:17:57.180Z,3.13
2023-05-08T22:20:25.870Z,3.50
2023-05-08T22:22:54.230Z,3.80
2023-05-08T22:25:22.517Z,3.80
2023-05-08T22:27:50.935Z,3.72
2023-05-08T22:30:20.686Z,3.75
2023-05-08T22:32:54.525Z,4.28
2023-05-08T22:35:24.287Z,4.20
2023-05-08T22:37:52.964Z,4.85
2023-05-08T22:40:22.329Z,5.70
2023-05-08T22:42:51.866Z,5.65
2023-05-08T22:45:21.717Z,5.50
2023-05-08T22:47:50.348Z,4.07
2023-05-08T22:50:19.129Z,5.13
2023-05-08T22:52:47.344Z,5.05
2023-05-08T22:55:16.595Z,4.38
2023-05-08T22:57:45.004Z,4.75
2023-05-08T23:00:15.243Z,4.63
2023-05-08T23:02:45.088Z,5.57
2023-05-08T23:05:13.589Z,5.32
2023-05-08T23:07:42.327Z,5.13
2023-05-08T23:10:11.571Z,5.47
2023-05-08T23:12:39.737Z,5.60
2023-05-08T23:15:09.529Z,6.57
2023-05-08T23:17:37.952Z,4.50
2023-05-08T23:20:09.428Z,4.88
2023-05-08T23:22:37.620Z,5.30
2023-05-08T23:25:06.527Z,4.78
2023-05-08T23:27:34.649Z,5.45
2023-05-08T23:30:02.992Z,4.82
2023-05-08T23:32:31.346Z,5.10
2023-05-08T23:34:59.468Z,5.30
2023-05-08T23:37:29.354Z,4.82
2023-05-08T23:39:57.511Z,5.10
2023-05-08T23:42:25.799Z,5.20
2023-05-08T23:44:54.001Z,6.13
2023-05-08T23:47:22.651Z,5.80
2023-05-08T23:49:50.872Z,6.05
2023-05-08T23:52:18.977Z,4.60
2023-05-08T23:54:48.621Z,4.88
2023-05-08T23:57:16.836Z,5.80
2023-05-08T23:59:45.039Z,5.53
